Trà Nóc Airport
VVCT : now visible

Airfield :











YOU CAN JOIN US ON...

 
LOGIN :

Register | Disclaimer

   EN    FR    IT 

 









Legend :    VFR   Marginal VFR   IFR   Intensive IFR   Very Intensive IFR
Visi :
Ceiling :
>= 8 km
>= 3000ft
5 to 8 km
1000 to 3000 ft
1500m to 5 km
500 to 1000 ft
800 to 1500m
200 to 500 ft
< 800m
< 200 ft
Symbols :   Thunderstorms  Fog  Heavy snow  Heavy precipitations  Wind > 20 kt






- Airport Elevation : 9 ft
- IATA code : VCA


VVCT - Trà Nóc

CURRENT METAR :
  • 020700Z 10008KT 9999 SCT015 33/23 Q1010 NOSIG

EXPIRED METARs :
  • 020600Z 10010KT 9999 SCT015 33/23 Q1011 NOSIG
  • 020530Z 07007KT 9999 SCT015 33/24 Q1012 NOSIG
  • 020500Z 09006KT 9999 SCT015 33/24 Q1012 NOSIG
  • 020430Z 07009KT 9999 FEW015 32/24 Q1013 NOSIG
  • 012100Z 09003KT CAVOK 25/24 Q1010 NOSIG
  • 020400Z 05008KT 9999 FEW015 32/24 Q1013 NOSIG
  • 020330Z 05008KT 9999 FEW015 31/25 Q1013 NOSIG
  • 020300Z 06010KT 9999 FEW015 31/25 Q1014 NOSIG
  • 020230Z 05010KT 9999 FEW015 30/25 Q1014 NOSIG

TAF TAF VVCT
Valid from the 02 at 06:00 until the 03 at 06:00 UTC


020500Z 0206/0306 09010KT 9999 FEW017



MET'MAP, your aeronautical weather chart ! - Copyright ORBIFLY December 2007 - Disclaimer

ORBIFLY MET'MAP TEAM :

Programming & Development : Alexandra Zaïnal
Original concept : Baudouin d'Aumeries
Technical & hardware support : Manuel Goepfert
Assistance : Marc-Olivier Méhu




SOURCES & CREDITS :

   NOAA       Earth
Advisory